KCKM/CKM METAR and TAF weather

Enter ICAO airport designator
Station Type Date Time Source
KCKM METAR 2021/07/28 04:15 UTC NOAA

KCKM 280415Z AUTO 00000KT 10SM CLR 27/27 A3001 RMK A01


Station Type Date Time Source
KCKM Decoded METAR 2021/07/28 04:15 UTC NOAA

Station name not available
Jul 28, 2021 - 12:15 AM EDT / 2021.07.28 0415 UTC
Wind: Calm:0
Visibility: 10 mile(s):0
Sky conditions: clear
Temperature: 80 F (27 C)
Dew Point: 80 F (27 C)
Relative Humidity: 100%
Pressure (altimeter): 30.01 in. Hg (1016 hPa)
ob: KCKM 280415Z AUTO 00000KT 10SM CLR 27/27 A3001 RMK A01
cycle: 4

Station Type Date Time Source
KCKM TAF UTC NOAA

Error!

Example: see airport list